sensor_id;sensor_type;location;lat;lon;timestamp;temperature;humidity
29575;DHT22;16507;51.046;6.406;2023-07-09T00:02:21;20.50;99.90
29575;DHT22;16507;51.046;6.406;2023-07-09T00:04:47;20.40;99.90
29575;DHT22;16507;51.046;6.406;2023-07-09T00:07:21;20.40;99.90
29575;DHT22;16507;51.046;6.406;2023-07-09T00:09:49;20.30;99.90
29575;DHT22;16507;51.046;6.406;2023-07-09T00:12:16;20.30;99.90
29575;DHT22;16507;51.046;6.406;2023-07-09T00:14:43;20.20;99.90
29575;DHT22;16507;51.046;6.406;2023-07-09T00:17:18;20.20;99.90
29575;DHT22;16507;51.046;6.406;2023-07-09T00:19:45;20.20;99.90
29575;DHT22;16507;51.046;6.406;2023-07-09T00:22:16;20.10;99.90
29575;DHT22;16507;51.046;6.406;2023-07-09T00:24:51;20.10;99.90
29575;DHT22;16507;51.046;6.406;2023-07-09T00:27:19;20.00;99.90
29575;DHT22;16507;51.046;6.406;2023-07-09T00:29:45;20.00;99.90
29575;DHT22;16507;51.046;6.406;2023-07-09T00:32:15;20.00;99.90
29575;DHT22;16507;51.046;6.406;2023-07-09T00:34:44;20.00;99.90
29575;DHT22;16507;51.046;6.406;2023-07-09T00:37:14;19.90;99.90
29575;DHT22;16507;51.046;6.406;2023-07-09T00:39:40;19.90;99.90
29575;DHT22;16507;51.046;6.406;2023-07-09T00:42:14;19.90;99.90
29575;DHT22;16507;51.046;6.406;2023-07-09T00:44:43;19.80;99.90
29575;DHT22;16507;51.046;6.406;2023-07-09T00:50:26;19.80;99.90
29575;DHT22;16507;51.046;6.406;2023-07-09T00:52:59;19.80;99.90
29575;DHT22;16507;51.046;6.406;2023-07-09T00:55:33;19.70;99.90
29575;DHT22;16507;51.046;6.406;2023-07-09T00:58:06;19.70;99.90
29575;DHT22;16507;51.046;6.406;2023-07-09T01:00:46;19.60;99.90
29575;DHT22;16507;51.046;6.406;2023-07-09T01:03:34;19.60;99.90
29575;DHT22;16507;51.046;6.406;2023-07-09T01:06:00;19.50;99.90
29575;DHT22;16507;51.046;6.406;2023-07-09T01:08:31;19.50;99.90
29575;DHT22;16507;51.046;6.406;2023-07-09T01:10:58;19.40;99.90
29575;DHT22;16507;51.046;6.406;2023-07-09T01:13:28;19.30;99.90
29575;DHT22;16507;51.046;6.406;2023-07-09T01:15:54;19.30;99.90
29575;DHT22;16507;51.046;6.406;2023-07-09T01:18:21;19.30;99.90
29575;DHT22;16507;51.046;6.406;2023-07-09T01:20:47;19.20;99.90
29575;DHT22;16507;51.046;6.406;2023-07-09T01:23:13;19.20;99.90
29575;DHT22;16507;51.046;6.406;2023-07-09T01:25:45;19.20;99.90
29575;DHT22;16507;51.046;6.406;2023-07-09T01:28:11;19.20;99.90
29575;DHT22;16507;51.046;6.406;2023-07-09T01:30:39;19.20;99.90
29575;DHT22;16507;51.046;6.406;2023-07-09T01:33:06;19.20;99.90
29575;DHT22;16507;51.046;6.406;2023-07-09T01:35:36;19.20;99.90
29575;DHT22;16507;51.046;6.406;2023-07-09T01:38:02;19.10;99.90
29575;DHT22;16507;51.046;6.406;2023-07-09T01:40:31;19.00;99.90
29575;DHT22;16507;51.046;6.406;2023-07-09T01:42:58;19.00;99.90
29575;DHT22;16507;51.046;6.406;2023-07-09T01:45:24;18.90;99.90
29575;DHT22;16507;51.046;6.406;2023-07-09T01:47:50;18.90;99.90
29575;DHT22;16507;51.046;6.406;2023-07-09T01:50:16;18.80;99.90
29575;DHT22;16507;51.046;6.406;2023-07-09T01:52:44;18.80;99.90
29575;DHT22;16507;51.046;6.406;2023-07-09T01:55:12;18.80;99.90
29575;DHT22;16507;51.046;6.406;2023-07-09T01:57:38;18.80;99.90
29575;DHT22;16507;51.046;6.406;2023-07-09T02:00:12;18.80;99.90
29575;DHT22;16507;51.046;6.406;2023-07-09T02:02:40;18.80;99.90
29575;DHT22;16507;51.046;6.406;2023-07-09T02:05:08;18.80;99.90
29575;DHT22;16507;51.046;6.406;2023-07-09T02:07:34;19.00;99.90
29575;DHT22;16507;51.046;6.406;2023-07-09T02:10:00;19.10;99.90
29575;DHT22;16507;51.046;6.406;2023-07-09T02:12:26;19.10;99.90
29575;DHT22;16507;51.046;6.406;2023-07-09T02:14:51;19.20;99.90
29575;DHT22;16507;51.046;6.406;2023-07-09T02:17:17;19.20;99.90
29575;DHT22;16507;51.046;6.406;2023-07-09T02:19:43;19.20;99.90
29575;DHT22;16507;51.046;6.406;2023-07-09T02:22:10;19.20;99.90
29575;DHT22;16507;51.046;6.406;2023-07-09T02:24:36;19.20;99.90
29575;DHT22;16507;51.046;6.406;2023-07-09T02:27:03;19.10;99.90
29575;DHT22;16507;51.046;6.406;2023-07-09T02:29:30;19.10;99.90
29575;DHT22;16507;51.046;6.406;2023-07-09T02:31:58;19.00;99.90
29575;DHT22;16507;51.046;6.406;2023-07-09T02:34:25;19.10;99.90
29575;DHT22;16507;51.046;6.406;2023-07-09T02:36:52;19.10;99.90
29575;DHT22;16507;51.046;6.406;2023-07-09T02:39:18;19.10;99.90
29575;DHT22;16507;51.046;6.406;2023-07-09T02:41:45;18.90;99.90
29575;DHT22;16507;51.046;6.406;2023-07-09T02:44:10;18.70;99.90
29575;DHT22;16507;51.046;6.406;2023-07-09T02:46:36;18.60;99.90
29575;DHT22;16507;51.046;6.406;2023-07-09T02:49:06;18.60;99.90
29575;DHT22;16507;51.046;6.406;2023-07-09T02:51:32;18.60;99.90
29575;DHT22;16507;51.046;6.406;2023-07-09T02:54:00;18.60;99.90
29575;DHT22;16507;51.046;6.406;2023-07-09T02:56:26;18.50;99.90
29575;DHT22;16507;51.046;6.406;2023-07-09T02:58:52;18.50;99.90
29575;DHT22;16507;51.046;6.406;2023-07-09T03:01:18;18.50;99.90
29575;DHT22;16507;51.046;6.406;2023-07-09T03:03:45;18.50;99.90
29575;DHT22;16507;51.046;6.406;2023-07-09T03:06:11;18.50;99.90
29575;DHT22;16507;51.046;6.406;2023-07-09T03:08:37;18.50;99.90
29575;DHT22;16507;51.046;6.406;2023-07-09T03:11:12;18.50;99.90
29575;DHT22;16507;51.046;6.406;2023-07-09T03:13:38;18.50;99.90
29575;DHT22;16507;51.046;6.406;2023-07-09T03:16:04;18.50;99.90
29575;DHT22;16507;51.046;6.406;2023-07-09T03:18:30;18.40;99.90
29575;DHT22;16507;51.046;6.406;2023-07-09T03:20:56;18.30;99.90
29575;DHT22;16507;51.046;6.406;2023-07-09T03:23:22;18.20;99.90
29575;DHT22;16507;51.046;6.406;2023-07-09T03:25:47;18.20;99.90
29575;DHT22;16507;51.046;6.406;2023-07-09T03:28:13;18.30;99.90
29575;DHT22;16507;51.046;6.406;2023-07-09T03:30:43;18.30;99.90
29575;DHT22;16507;51.046;6.406;2023-07-09T03:33:10;18.40;99.90
29575;DHT22;16507;51.046;6.406;2023-07-09T03:35:36;18.50;99.90
29575;DHT22;16507;51.046;6.406;2023-07-09T03:38:04;18.60;99.90
29575;DHT22;16507;51.046;6.406;2023-07-09T03:40:30;18.50;99.90
29575;DHT22;16507;51.046;6.406;2023-07-09T03:42:55;18.50;99.90
29575;DHT22;16507;51.046;6.406;2023-07-09T03:45:21;18.40;99.90
29575;DHT22;16507;51.046;6.406;2023-07-09T03:47:46;18.40;99.90
29575;DHT22;16507;51.046;6.406;2023-07-09T03:50:12;18.40;99.90
29575;DHT22;16507;51.046;6.406;2023-07-09T03:52:37;18.30;99.90
29575;DHT22;16507;51.046;6.406;2023-07-09T03:55:03;18.30;99.90
29575;DHT22;16507;51.046;6.406;2023-07-09T03:57:33;18.30;99.90
29575;DHT22;16507;51.046;6.406;2023-07-09T03:59:59;18.30;99.90
29575;DHT22;16507;51.046;6.406;2023-07-09T04:02:25;18.30;99.90
29575;DHT22;16507;51.046;6.406;2023-07-09T04:04:50;18.40;99.90
29575;DHT22;16507;51.046;6.406;2023-07-09T04:07:16;18.40;99.90
29575;DHT22;16507;51.046;6.406;2023-07-09T04:09:42;18.50;99.90
29575;DHT22;16507;51.046;6.406;2023-07-09T04:12:09;18.60;99.90
29575;DHT22;16507;51.046;6.406;2023-07-09T04:14:35;18.70;99.90
29575;DHT22;16507;51.046;6.406;2023-07-09T04:17:00;18.70;99.90
29575;DHT22;16507;51.046;6.406;2023-07-09T04:19:26;18.70;99.90
29575;DHT22;16507;51.046;6.406;2023-07-09T04:21:52;18.90;99.90
29575;DHT22;16507;51.046;6.406;2023-07-09T04:24:19;18.90;99.90
29575;DHT22;16507;51.046;6.406;2023-07-09T04:26:45;19.00;99.90
29575;DHT22;16507;51.046;6.406;2023-07-09T04:29:12;19.00;99.90
29575;DHT22;16507;51.046;6.406;2023-07-09T04:31:38;19.10;99.90
29575;DHT22;16507;51.046;6.406;2023-07-09T04:34:04;19.20;99.90
29575;DHT22;16507;51.046;6.406;2023-07-09T04:36:30;19.90;99.90
29575;DHT22;16507;51.046;6.406;2023-07-09T04:38:56;20.40;99.90
29575;DHT22;16507;51.046;6.406;2023-07-09T04:41:24;20.90;99.90
29575;DHT22;16507;51.046;6.406;2023-07-09T04:43:50;21.40;99.90
29575;DHT22;16507;51.046;6.406;2023-07-09T04:46:16;21.60;99.90
29575;DHT22;16507;51.046;6.406;2023-07-09T04:48:41;21.30;99.90
29575;DHT22;16507;51.046;6.406;2023-07-09T04:51:07;21.10;99.90
29575;DHT22;16507;51.046;6.406;2023-07-09T04:53:34;20.90;99.90
29575;DHT22;16507;51.046;6.406;2023-07-09T04:55:59;20.90;99.90
29575;DHT22;16507;51.046;6.406;2023-07-09T04:58:26;20.80;99.90
29575;DHT22;16507;51.046;6.406;2023-07-09T05:00:51;21.00;99.90
29575;DHT22;16507;51.046;6.406;2023-07-09T05:03:19;21.10;99.90
29575;DHT22;16507;51.046;6.406;2023-07-09T05:05:45;21.30;99.90
29575;DHT22;16507;51.046;6.406;2023-07-09T05:08:15;21.50;99.90
29575;DHT22;16507;51.046;6.406;2023-07-09T05:10:50;21.60;99.90
29575;DHT22;16507;51.046;6.406;2023-07-09T05:13:16;21.70;99.90
29575;DHT22;16507;51.046;6.406;2023-07-09T05:15:44;21.80;99.90
29575;DHT22;16507;51.046;6.406;2023-07-09T05:18:10;22.00;99.90
29575;DHT22;16507;51.046;6.406;2023-07-09T05:20:36;22.20;99.90
29575;DHT22;16507;51.046;6.406;2023-07-09T05:23:02;22.20;99.90
29575;DHT22;16507;51.046;6.406;2023-07-09T05:25:28;22.20;99.90
29575;DHT22;16507;51.046;6.406;2023-07-09T05:27:53;22.40;99.90
29575;DHT22;16507;51.046;6.406;2023-07-09T05:30:19;22.60;99.90
29575;DHT22;16507;51.046;6.406;2023-07-09T05:32:47;22.80;99.90
29575;DHT22;16507;51.046;6.406;2023-07-09T05:35:13;22.90;99.90
29575;DHT22;16507;51.046;6.406;2023-07-09T05:37:38;23.10;99.90
29575;DHT22;16507;51.046;6.406;2023-07-09T05:40:05;23.20;99.90
29575;DHT22;16507;51.046;6.406;2023-07-09T05:42:32;23.30;99.90
29575;DHT22;16507;51.046;6.406;2023-07-09T05:44:58;23.60;99.90
29575;DHT22;16507;51.046;6.406;2023-07-09T05:47:24;23.80;99.90
29575;DHT22;16507;51.046;6.406;2023-07-09T05:49:49;24.00;99.90
29575;DHT22;16507;51.046;6.406;2023-07-09T05:52:20;24.20;99.90
29575;DHT22;16507;51.046;6.406;2023-07-09T05:54:49;24.30;99.90
29575;DHT22;16507;51.046;6.406;2023-07-09T05:57:15;24.20;99.90
29575;DHT22;16507;51.046;6.406;2023-07-09T05:59:41;24.40;99.90
29575;DHT22;16507;51.046;6.406;2023-07-09T06:02:15;24.60;99.90
29575;DHT22;16507;51.046;6.406;2023-07-09T06:04:41;24.60;99.90
29575;DHT22;16507;51.046;6.406;2023-07-09T06:07:08;24.70;99.90
29575;DHT22;16507;51.046;6.406;2023-07-09T06:09:34;24.70;99.90
29575;DHT22;16507;51.046;6.406;2023-07-09T06:12:00;24.60;99.90
29575;DHT22;16507;51.046;6.406;2023-07-09T06:14:26;24.80;99.90
29575;DHT22;16507;51.046;6.406;2023-07-09T06:16:52;24.80;99.90
29575;DHT22;16507;51.046;6.406;2023-07-09T06:19:17;25.00;99.90
29575;DHT22;16507;51.046;6.406;2023-07-09T06:21:43;25.10;99.90
29575;DHT22;16507;51.046;6.406;2023-07-09T06:24:09;25.30;99.90
29575;DHT22;16507;51.046;6.406;2023-07-09T06:26:35;25.40;99.90
29575;DHT22;16507;51.046;6.406;2023-07-09T06:29:00;25.40;99.90
29575;DHT22;16507;51.046;6.406;2023-07-09T06:31:26;25.70;99.90
29575;DHT22;16507;51.046;6.406;2023-07-09T06:33:52;25.70;99.90
29575;DHT22;16507;51.046;6.406;2023-07-09T06:36:18;25.80;99.90
29575;DHT22;16507;51.046;6.406;2023-07-09T06:38:45;26.10;99.90
29575;DHT22;16507;51.046;6.406;2023-07-09T06:41:11;26.30;99.90
29575;DHT22;16507;51.046;6.406;2023-07-09T06:43:37;26.50;99.90
29575;DHT22;16507;51.046;6.406;2023-07-09T06:46:07;26.50;99.90
29575;DHT22;16507;51.046;6.406;2023-07-09T06:48:33;26.70;99.90
29575;DHT22;16507;51.046;6.406;2023-07-09T06:50:59;26.90;99.90
29575;DHT22;16507;51.046;6.406;2023-07-09T06:53:26;27.00;99.90
29575;DHT22;16507;51.046;6.406;2023-07-09T06:55:52;27.10;99.90
29575;DHT22;16507;51.046;6.406;2023-07-09T06:58:21;27.10;99.90
29575;DHT22;16507;51.046;6.406;2023-07-09T07:00:49;27.20;99.90
29575;DHT22;16507;51.046;6.406;2023-07-09T07:03:15;27.30;99.90
29575;DHT22;16507;51.046;6.406;2023-07-09T07:05:49;27.20;99.90
29575;DHT22;16507;51.046;6.406;2023-07-09T07:08:16;27.30;99.90
29575;DHT22;16507;51.046;6.406;2023-07-09T07:10:43;27.40;99.90
29575;DHT22;16507;51.046;6.406;2023-07-09T07:13:09;27.60;99.90
29575;DHT22;16507;51.046;6.406;2023-07-09T07:15:37;27.80;99.90
29575;DHT22;16507;51.046;6.406;2023-07-09T07:18:03;27.90;99.90
29575;DHT22;16507;51.046;6.406;2023-07-09T07:20:30;28.00;99.90
29575;DHT22;16507;51.046;6.406;2023-07-09T07:22:56;28.20;99.90
29575;DHT22;16507;51.046;6.406;2023-07-09T07:25:22;28.20;99.90
29575;DHT22;16507;51.046;6.406;2023-07-09T07:27:48;28.20;99.90
29575;DHT22;16507;51.046;6.406;2023-07-09T07:30:14;28.50;99.90
29575;DHT22;16507;51.046;6.406;2023-07-09T07:32:45;28.40;99.90
29575;DHT22;16507;51.046;6.406;2023-07-09T07:35:12;28.60;94.40
29575;DHT22;16507;51.046;6.406;2023-07-09T07:37:41;28.80;95.30
29575;DHT22;16507;51.046;6.406;2023-07-09T07:40:08;28.70;93.00
29575;DHT22;16507;51.046;6.406;2023-07-09T07:42:35;28.70;85.60
29575;DHT22;16507;51.046;6.406;2023-07-09T07:45:01;28.80;93.90
29575;DHT22;16507;51.046;6.406;2023-07-09T07:47:27;29.00;93.40
29575;DHT22;16507;51.046;6.406;2023-07-09T07:49:53;29.00;95.40
29575;DHT22;16507;51.046;6.406;2023-07-09T07:52:19;29.10;99.20
29575;DHT22;16507;51.046;6.406;2023-07-09T07:54:45;29.20;88.20
29575;DHT22;16507;51.046;6.406;2023-07-09T07:57:11;29.40;96.20
29575;DHT22;16507;51.046;6.406;2023-07-09T07:59:37;29.70;86.10
29575;DHT22;16507;51.046;6.406;2023-07-09T08:02:05;29.80;72.30
29575;DHT22;16507;51.046;6.406;2023-07-09T08:04:32;29.80;77.30
29575;DHT22;16507;51.046;6.406;2023-07-09T08:06:58;30.00;75.30
29575;DHT22;16507;51.046;6.406;2023-07-09T08:09:24;30.30;75.00
29575;DHT22;16507;51.046;6.406;2023-07-09T08:11:50;30.30;72.20
29575;DHT22;16507;51.046;6.406;2023-07-09T08:14:16;30.40;66.00
29575;DHT22;16507;51.046;6.406;2023-07-09T08:16:42;30.40;59.40
29575;DHT22;16507;51.046;6.406;2023-07-09T08:19:07;30.60;66.40
29575;DHT22;16507;51.046;6.406;2023-07-09T08:21:33;30.90;68.10
29575;DHT22;16507;51.046;6.406;2023-07-09T08:23:59;31.20;60.60
29575;DHT22;16507;51.046;6.406;2023-07-09T08:26:25;31.30;54.40
29575;DHT22;16507;51.046;6.406;2023-07-09T08:28:51;31.40;52.40
29575;DHT22;16507;51.046;6.406;2023-07-09T08:31:17;31.40;53.10
29575;DHT22;16507;51.046;6.406;2023-07-09T08:33:43;31.20;53.30
29575;DHT22;16507;51.046;6.406;2023-07-09T08:36:08;31.30;56.30
29575;DHT22;16507;51.046;6.406;2023-07-09T08:38:34;31.70;49.50
29575;DHT22;16507;51.046;6.406;2023-07-09T08:41:07;31.90;43.90
29575;DHT22;16507;51.046;6.406;2023-07-09T08:48:42;31.90;52.00
29575;DHT22;16507;51.046;6.406;2023-07-09T08:53:54;32.10;48.90
29575;DHT22;16507;51.046;6.406;2023-07-09T08:56:22;32.00;48.50
29575;DHT22;16507;51.046;6.406;2023-07-09T08:58:50;32.10;48.10
29575;DHT22;16507;51.046;6.406;2023-07-09T09:01:19;32.20;48.50
29575;DHT22;16507;51.046;6.406;2023-07-09T09:03:51;32.50;46.30
29575;DHT22;16507;51.046;6.406;2023-07-09T09:06:21;32.70;42.90
29575;DHT22;16507;51.046;6.406;2023-07-09T09:08:57;32.70;43.40
29575;DHT22;16507;51.046;6.406;2023-07-09T09:11:49;32.90;41.70
29575;DHT22;16507;51.046;6.406;2023-07-09T09:16:53;33.30;34.70
29575;DHT22;16507;51.046;6.406;2023-07-09T09:19:28;33.40;29.20
29575;DHT22;16507;51.046;6.406;2023-07-09T09:22:00;33.30;29.40
29575;DHT22;16507;51.046;6.406;2023-07-09T09:24:35;33.40;32.40
29575;DHT22;16507;51.046;6.406;2023-07-09T09:27:02;33.70;33.90
29575;DHT22;16507;51.046;6.406;2023-07-09T09:29:28;33.60;32.40
29575;DHT22;16507;51.046;6.406;2023-07-09T09:31:55;33.70;34.40
29575;DHT22;16507;51.046;6.406;2023-07-09T09:34:27;33.70;31.60
29575;DHT22;16507;51.046;6.406;2023-07-09T09:36:54;33.80;25.30
29575;DHT22;16507;51.046;6.406;2023-07-09T09:39:20;33.80;28.20
29575;DHT22;16507;51.046;6.406;2023-07-09T09:41:47;34.10;29.30
29575;DHT22;16507;51.046;6.406;2023-07-09T09:44:28;34.30;27.20
29575;DHT22;16507;51.046;6.406;2023-07-09T09:46:57;34.00;25.80
29575;DHT22;16507;51.046;6.406;2023-07-09T09:49:23;34.10;24.90
29575;DHT22;16507;51.046;6.406;2023-07-09T09:51:49;34.20;24.60
29575;DHT22;16507;51.046;6.406;2023-07-09T09:54:19;34.50;24.20
29575;DHT22;16507;51.046;6.406;2023-07-09T09:56:48;34.40;21.30
29575;DHT22;16507;51.046;6.406;2023-07-09T09:59:27;34.50;24.10
29575;DHT22;16507;51.046;6.406;2023-07-09T10:02:00;34.70;22.00
29575;DHT22;16507;51.046;6.406;2023-07-09T10:04:27;34.80;21.00
29575;DHT22;16507;51.046;6.406;2023-07-09T10:07:00;34.90;19.00
29575;DHT22;16507;51.046;6.406;2023-07-09T10:09:45;34.90;18.40
29575;DHT22;16507;51.046;6.406;2023-07-09T10:15:41;35.20;18.50
29575;DHT22;16507;51.046;6.406;2023-07-09T10:21:10;35.10;17.00
29575;DHT22;16507;51.046;6.406;2023-07-09T10:26:39;35.20;11.80
29575;DHT22;16507;51.046;6.406;2023-07-09T10:32:32;35.60;14.80
29575;DHT22;16507;51.046;6.406;2023-07-09T10:35:22;35.50;12.20
29575;DHT22;16507;51.046;6.406;2023-07-09T10:38:09;35.80;8.80
29575;DHT22;16507;51.046;6.406;2023-07-09T10:40:48;36.20;13.40
29575;DHT22;16507;51.046;6.406;2023-07-09T10:43:29;36.50;9.50
29575;DHT22;16507;51.046;6.406;2023-07-09T10:46:00;36.60;7.90
29575;DHT22;16507;51.046;6.406;2023-07-09T10:48:41;36.40;7.00
29575;DHT22;16507;51.046;6.406;2023-07-09T10:56:56;36.70;1.00
29575;DHT22;16507;51.046;6.406;2023-07-09T10:59:30;36.20;1.00
29575;DHT22;16507;51.046;6.406;2023-07-09T11:02:33;36.40;1.00
29575;DHT22;16507;51.046;6.406;2023-07-09T11:05:05;36.20;1.00
29575;DHT22;16507;51.046;6.406;2023-07-09T11:07:58;36.00;1.00
29575;DHT22;16507;51.046;6.406;2023-07-09T11:10:48;36.00;1.00
29575;DHT22;16507;51.046;6.406;2023-07-09T11:13:18;36.10;1.00
29575;DHT22;16507;51.046;6.406;2023-07-09T11:15:48;36.20;1.00
29575;DHT22;16507;51.046;6.406;2023-07-09T11:18:24;36.60;1.00
29575;DHT22;16507;51.046;6.406;2023-07-09T11:21:05;36.30;1.00
29575;DHT22;16507;51.046;6.406;2023-07-09T11:24:00;36.30;1.00
29575;DHT22;16507;51.046;6.406;2023-07-09T11:29:15;36.60;1.00
29575;DHT22;16507;51.046;6.406;2023-07-09T11:31:46;36.70;1.00
29575;DHT22;16507;51.046;6.406;2023-07-09T11:36:50;36.70;1.00
29575;DHT22;16507;51.046;6.406;2023-07-09T11:40:04;36.40;1.00
29575;DHT22;16507;51.046;6.406;2023-07-09T11:42:31;36.50;1.00
29575;DHT22;16507;51.046;6.406;2023-07-09T11:45:03;36.70;1.00
29575;DHT22;16507;51.046;6.406;2023-07-09T11:47:34;37.10;1.00
29575;DHT22;16507;51.046;6.406;2023-07-09T11:50:04;37.70;1.00
29575;DHT22;16507;51.046;6.406;2023-07-09T11:52:43;37.80;1.00
29575;DHT22;16507;51.046;6.406;2023-07-09T11:55:27;38.00;1.00
29575;DHT22;16507;51.046;6.406;2023-07-09T11:58:03;37.80;1.00
29575;DHT22;16507;51.046;6.406;2023-07-09T12:00:42;37.70;1.00
29575;DHT22;16507;51.046;6.406;2023-07-09T12:03:23;37.70;1.00
29575;DHT22;16507;51.046;6.406;2023-07-09T12:05:55;37.40;1.00
29575;DHT22;16507;51.046;6.406;2023-07-09T12:08:22;37.30;1.00
29575;DHT22;16507;51.046;6.406;2023-07-09T12:10:49;37.70;1.00
29575;DHT22;16507;51.046;6.406;2023-07-09T12:13:15;37.90;1.00
29575;DHT22;16507;51.046;6.406;2023-07-09T12:15:41;38.00;1.00
29575;DHT22;16507;51.046;6.406;2023-07-09T12:18:13;37.60;1.00
29575;DHT22;16507;51.046;6.406;2023-07-09T12:20:39;37.50;1.00
29575;DHT22;16507;51.046;6.406;2023-07-09T12:23:25;37.70;1.00
29575;DHT22;16507;51.046;6.406;2023-07-09T12:25:53;37.10;1.00
29575;DHT22;16507;51.046;6.406;2023-07-09T12:28:20;36.80;1.00
29575;DHT22;16507;51.046;6.406;2023-07-09T12:30:50;36.60;1.00
29575;DHT22;16507;51.046;6.406;2023-07-09T12:33:25;36.10;1.00
29575;DHT22;16507;51.046;6.406;2023-07-09T12:35:57;35.60;1.00
29575;DHT22;16507;51.046;6.406;2023-07-09T12:38:25;35.40;1.00
29575;DHT22;16507;51.046;6.406;2023-07-09T12:40:52;35.20;1.00
29575;DHT22;16507;51.046;6.406;2023-07-09T12:43:25;35.10;1.00
29575;DHT22;16507;51.046;6.406;2023-07-09T12:45:57;35.00;1.00
29575;DHT22;16507;51.046;6.406;2023-07-09T12:48:26;34.80;1.00
29575;DHT22;16507;51.046;6.406;2023-07-09T12:50:57;34.60;1.00
29575;DHT22;16507;51.046;6.406;2023-07-09T12:53:25;34.20;1.00
29575;DHT22;16507;51.046;6.406;2023-07-09T12:55:59;33.90;1.00
29575;DHT22;16507;51.046;6.406;2023-07-09T12:58:29;33.60;1.00
29575;DHT22;16507;51.046;6.406;2023-07-09T13:00:56;33.30;1.00
29575;DHT22;16507;51.046;6.406;2023-07-09T13:03:28;33.10;1.00
29575;DHT22;16507;51.046;6.406;2023-07-09T13:06:05;32.90;1.00
29575;DHT22;16507;51.046;6.406;2023-07-09T13:08:39;32.60;1.00
29575;DHT22;16507;51.046;6.406;2023-07-09T13:11:17;32.40;1.00
29575;DHT22;16507;51.046;6.406;2023-07-09T13:13:58;32.00;1.00
29575;DHT22;16507;51.046;6.406;2023-07-09T13:16:24;31.80;1.00
29575;DHT22;16507;51.046;6.406;2023-07-09T13:18:50;31.20;1.00
29575;DHT22;16507;51.046;6.406;2023-07-09T13:21:18;29.90;10.40
29575;DHT22;16507;51.046;6.406;2023-07-09T13:23:44;28.90;28.50
29575;DHT22;16507;51.046;6.406;2023-07-09T13:26:09;27.80;48.70
29575;DHT22;16507;51.046;6.406;2023-07-09T13:28:35;27.10;36.80
29575;DHT22;16507;51.046;6.406;2023-07-09T13:33:37;26.50;30.30
29575;DHT22;16507;51.046;6.406;2023-07-09T13:36:03;26.30;31.60
29575;DHT22;16507;51.046;6.406;2023-07-09T13:38:29;26.20;34.80
29575;DHT22;16507;51.046;6.406;2023-07-09T13:40:59;26.00;52.00
29575;DHT22;16507;51.046;6.406;2023-07-09T13:43:34;25.90;61.90
29575;DHT22;16507;51.046;6.406;2023-07-09T13:46:01;25.70;88.70
29575;DHT22;16507;51.046;6.406;2023-07-09T13:48:29;25.40;87.20
29575;DHT22;16507;51.046;6.406;2023-07-09T13:50:55;25.40;99.70
29575;DHT22;16507;51.046;6.406;2023-07-09T13:53:23;25.40;99.90
29575;DHT22;16507;51.046;6.406;2023-07-09T13:55:53;25.40;99.90
29575;DHT22;16507;51.046;6.406;2023-07-09T13:58:20;25.40;98.50
29575;DHT22;16507;51.046;6.406;2023-07-09T14:00:47;25.40;99.90
29575;DHT22;16507;51.046;6.406;2023-07-09T14:03:23;25.40;99.90
29575;DHT22;16507;51.046;6.406;2023-07-09T14:05:50;25.20;99.90
29575;DHT22;16507;51.046;6.406;2023-07-09T14:08:16;24.80;99.90
29575;DHT22;16507;51.046;6.406;2023-07-09T14:10:45;24.60;99.90
29575;DHT22;16507;51.046;6.406;2023-07-09T14:13:16;24.40;99.90
29575;DHT22;16507;51.046;6.406;2023-07-09T14:15:42;24.40;99.90
29575;DHT22;16507;51.046;6.406;2023-07-09T14:18:19;24.30;99.90
29575;DHT22;16507;51.046;6.406;2023-07-09T14:20:46;23.60;99.90
29575;DHT22;16507;51.046;6.406;2023-07-09T15:26:51;21.90;99.90
29575;DHT22;16507;51.046;6.406;2023-07-09T15:29:18;22.00;99.90
29575;DHT22;16507;51.046;6.406;2023-07-09T15:31:44;22.10;99.90
29575;DHT22;16507;51.046;6.406;2023-07-09T15:34:10;22.20;99.90
29575;DHT22;16507;51.046;6.406;2023-07-09T15:36:36;22.20;99.90
29575;DHT22;16507;51.046;6.406;2023-07-09T15:39:02;22.40;99.90
29575;DHT22;16507;51.046;6.406;2023-07-09T15:41:28;22.50;99.90
29575;DHT22;16507;51.046;6.406;2023-07-09T15:43:53;22.60;99.90
29575;DHT22;16507;51.046;6.406;2023-07-09T15:46:20;22.70;99.90
29575;DHT22;16507;51.046;6.406;2023-07-09T15:48:47;22.80;99.90
29575;DHT22;16507;51.046;6.406;2023-07-09T15:51:13;23.00;99.90
29575;DHT22;16507;51.046;6.406;2023-07-09T15:53:39;22.90;99.90
29575;DHT22;16507;51.046;6.406;2023-07-09T15:56:33;23.00;99.90
29575;DHT22;16507;51.046;6.406;2023-07-09T15:58:59;23.10;99.90
29575;DHT22;16507;51.046;6.406;2023-07-09T16:01:26;23.20;99.90
29575;DHT22;16507;51.046;6.406;2023-07-09T16:03:58;23.10;99.90
29575;DHT22;16507;51.046;6.406;2023-07-09T16:06:23;23.20;99.90
29575;DHT22;16507;51.046;6.406;2023-07-09T16:08:49;23.30;99.90
29575;DHT22;16507;51.046;6.406;2023-07-09T16:11:22;23.50;99.90
29575;DHT22;16507;51.046;6.406;2023-07-09T16:13:50;23.90;99.90
29575;DHT22;16507;51.046;6.406;2023-07-09T16:16:18;24.40;99.90
29575;DHT22;16507;51.046;6.406;2023-07-09T16:18:44;25.20;99.90
29575;DHT22;16507;51.046;6.406;2023-07-09T16:21:30;25.20;99.90
29575;DHT22;16507;51.046;6.406;2023-07-09T16:23:59;25.20;99.90
29575;DHT22;16507;51.046;6.406;2023-07-09T16:26:27;25.30;99.90
29575;DHT22;16507;51.046;6.406;2023-07-09T16:28:54;25.90;99.90
29575;DHT22;16507;51.046;6.406;2023-07-09T16:31:19;25.50;99.90
29575;DHT22;16507;51.046;6.406;2023-07-09T16:33:45;25.10;99.90
29575;DHT22;16507;51.046;6.406;2023-07-09T16:36:16;24.90;99.90
29575;DHT22;16507;51.046;6.406;2023-07-09T16:38:43;24.60;99.90
29575;DHT22;16507;51.046;6.406;2023-07-09T16:41:12;24.30;99.90
29575;DHT22;16507;51.046;6.406;2023-07-09T16:43:42;24.20;99.90
29575;DHT22;16507;51.046;6.406;2023-07-09T16:46:21;24.20;99.90
29575;DHT22;16507;51.046;6.406;2023-07-09T16:48:47;24.00;99.90
29575;DHT22;16507;51.046;6.406;2023-07-09T16:51:13;23.90;99.90
29575;DHT22;16507;51.046;6.406;2023-07-09T16:53:39;23.80;99.90
29575;DHT22;16507;51.046;6.406;2023-07-09T16:56:04;23.50;99.90
29575;DHT22;16507;51.046;6.406;2023-07-09T16:58:33;23.60;99.90
29575;DHT22;16507;51.046;6.406;2023-07-09T17:01:00;23.50;99.90
29575;DHT22;16507;51.046;6.406;2023-07-09T17:03:27;23.70;99.90
29575;DHT22;16507;51.046;6.406;2023-07-09T17:05:52;23.80;99.90
29575;DHT22;16507;51.046;6.406;2023-07-09T17:08:18;24.10;99.90
29575;DHT22;16507;51.046;6.406;2023-07-09T17:10:45;24.30;99.90
29575;DHT22;16507;51.046;6.406;2023-07-09T17:13:24;24.40;99.90
29575;DHT22;16507;51.046;6.406;2023-07-09T17:15:51;24.60;99.90
29575;DHT22;16507;51.046;6.406;2023-07-09T17:18:25;24.80;99.90
29575;DHT22;16507;51.046;6.406;2023-07-09T17:20:54;25.10;99.90
29575;DHT22;16507;51.046;6.406;2023-07-09T17:23:21;25.40;99.90
29575;DHT22;16507;51.046;6.406;2023-07-09T17:25:48;25.50;99.90
29575;DHT22;16507;51.046;6.406;2023-07-09T17:28:17;25.70;99.90